createdAt,value
2023-02-24T00:00:32.009Z,22.10
2023-02-24T00:01:32.194Z,24.70
2023-02-24T00:02:32.005Z,22.10
2023-02-24T00:03:31.941Z,25.60
2023-02-24T00:04:31.913Z,27.80
2023-02-24T00:05:31.925Z,24.80
2023-02-24T00:06:31.908Z,28.50
2023-02-24T00:07:31.860Z,22.40
2023-02-24T00:08:31.866Z,23.10
2023-02-24T00:09:31.860Z,28.00
2023-02-24T00:10:31.837Z,24.10
2023-02-24T00:11:31.808Z,20.30
2023-02-24T00:12:31.860Z,24.30
2023-02-24T00:13:31.804Z,21.10
2023-02-24T00:14:31.818Z,26.50
2023-02-24T00:15:31.767Z,24.40
2023-02-24T00:16:31.796Z,24.50
2023-02-24T00:17:31.830Z,25.20
2023-02-24T00:18:31.762Z,29.40
2023-02-24T00:19:31.766Z,26.70
2023-02-24T00:20:31.693Z,21.70
2023-02-24T00:21:31.691Z,18.80
2023-02-24T00:22:31.704Z,26.10
2023-02-24T00:23:32.015Z,25.00
2023-02-24T00:24:31.708Z,22.30
2023-02-24T00:25:31.642Z,18.30
2023-02-24T00:26:31.665Z,22.90
2023-02-24T00:27:31.649Z,26.90
2023-02-24T00:28:33.062Z,17.00
2023-02-24T00:29:31.678Z,22.90
2023-02-24T00:30:31.586Z,21.70
2023-02-24T00:31:40.387Z,23.10
2023-02-24T00:32:39.292Z,24.10
2023-02-24T00:33:39.095Z,18.40
2023-02-24T00:34:31.556Z,20.80
2023-02-24T00:35:39.028Z,16.20
2023-02-24T00:36:38.999Z,21.30
2023-02-24T00:37:39.042Z,18.50
2023-02-24T00:38:31.450Z,17.70
2023-02-24T00:39:38.511Z,22.30
2023-02-24T00:40:31.449Z,18.80
2023-02-24T00:41:31.420Z,21.90
2023-02-24T00:42:31.403Z,17.30
2023-02-24T00:43:31.417Z,22.40
2023-02-24T00:44:31.439Z,26.40
2023-02-24T00:45:31.386Z,22.50
2023-02-24T00:46:31.384Z,26.20
2023-02-24T00:47:31.340Z,22.40
2023-02-24T00:48:32.889Z,19.20
2023-02-24T00:49:31.343Z,25.30
2023-02-24T00:50:31.357Z,22.30
2023-02-24T00:51:31.308Z,22.30
2023-02-24T00:52:31.286Z,16.80
2023-02-24T00:53:31.269Z,20.10
2023-02-24T00:54:31.283Z,22.70
2023-02-24T00:55:31.284Z,24.50
2023-02-24T00:56:31.231Z,19.90
2023-02-24T00:57:31.235Z,20.40
2023-02-24T00:58:31.204Z,22.10
2023-02-24T00:59:33.184Z,24.40
2023-02-24T01:00:31.184Z,21.60
2023-02-24T01:01:31.225Z,21.10
2023-02-24T01:02:31.148Z,19.70
2023-02-24T01:03:31.200Z,23.30
2023-02-24T01:04:31.114Z,20.50
2023-02-24T01:05:31.160Z,25.60
2023-02-24T01:06:31.115Z,19.10
2023-02-24T01:07:31.098Z,20.90
2023-02-24T01:08:31.078Z,24.50
2023-02-24T01:09:31.072Z,20.60
2023-02-24T01:10:31.302Z,22.10
2023-02-24T01:11:31.061Z,18.20
2023-02-24T01:12:31.015Z,25.20
2023-02-24T01:13:31.055Z,21.00
2023-02-24T01:14:30.975Z,28.10
2023-02-24T01:15:30.984Z,19.90
2023-02-24T01:16:30.952Z,20.60
2023-02-24T01:17:30.944Z,18.00
2023-02-24T01:18:30.929Z,25.80
2023-02-24T01:19:30.987Z,23.70
2023-02-24T01:20:30.921Z,23.10
2023-02-24T01:21:30.882Z,19.90
2023-02-24T01:22:30.863Z,21.10
2023-02-24T01:23:30.877Z,30.50
2023-02-24T01:24:30.870Z,22.40
2023-02-24T01:25:30.834Z,30.20
2023-02-24T01:26:30.864Z,26.40
2023-02-24T01:27:30.804Z,22.60
2023-02-24T01:28:30.798Z,25.10
2023-02-24T01:29:30.856Z,20.40
2023-02-24T01:30:30.768Z,19.80
2023-02-24T01:31:30.974Z,22.80
2023-02-24T01:32:30.966Z,25.30
2023-02-24T01:33:30.765Z,24.80
2023-02-24T01:34:30.710Z,24.00
2023-02-24T01:35:30.707Z,24.70
2023-02-24T01:36:30.686Z,28.10
2023-02-24T01:37:30.692Z,25.10
2023-02-24T01:38:30.667Z,27.30
2023-02-24T01:39:30.663Z,25.70
2023-02-24T01:40:30.656Z,25.90
2023-02-24T01:41:30.629Z,35.10
2023-02-24T01:42:30.604Z,31.40
2023-02-24T01:43:30.634Z,32.70
2023-02-24T01:44:30.579Z,29.90
2023-02-24T01:45:30.611Z,29.20
2023-02-24T01:46:30.626Z,26.40
2023-02-24T01:47:30.591Z,28.80
2023-02-24T01:48:30.561Z,26.80
2023-02-24T01:49:30.536Z,30.50
2023-02-24T01:50:30.515Z,28.10
2023-02-24T01:51:30.491Z,26.20
2023-02-24T01:52:30.565Z,26.90
2023-02-24T01:53:30.482Z,33.60
2023-02-24T01:54:30.451Z,29.70
2023-02-24T01:55:30.494Z,26.30
2023-02-24T01:56:30.430Z,27.90
2023-02-24T01:57:30.405Z,29.40
2023-02-24T01:58:30.418Z,25.00
2023-02-24T01:59:30.383Z,25.80
2023-02-24T02:00:30.399Z,24.50
2023-02-24T02:01:30.426Z,25.10
2023-02-24T02:02:30.377Z,21.50
2023-02-24T02:03:30.358Z,27.40
2023-02-24T02:04:30.326Z,24.10
2023-02-24T02:05:30.341Z,25.90
2023-02-24T02:06:30.288Z,28.10
2023-02-24T02:07:30.301Z,24.60
2023-02-24T02:08:30.320Z,19.50
2023-02-24T02:09:30.291Z,19.00
2023-02-24T02:10:30.351Z,20.00
2023-02-24T02:11:30.243Z,25.40
2023-02-24T02:12:31.581Z,26.00
2023-02-24T02:13:30.266Z,27.80
2023-02-24T02:14:30.224Z,25.80
2023-02-24T02:15:30.182Z,22.50
2023-02-24T02:16:30.238Z,24.50
2023-02-24T02:17:30.187Z,24.50
2023-02-24T02:18:30.167Z,24.50
2023-02-24T02:19:30.157Z,25.90
2023-02-24T02:20:30.112Z,22.30
2023-02-24T02:21:30.092Z,19.50
2023-02-24T02:22:30.085Z,18.80
2023-02-24T02:23:30.099Z,24.80
2023-02-24T02:24:30.060Z,23.00
2023-02-24T02:25:30.038Z,20.90
2023-02-24T02:26:30.025Z,20.90
2023-02-24T02:27:30.011Z,23.10
2023-02-24T02:28:30.054Z,22.40
2023-02-24T02:29:30.013Z,22.20
2023-02-24T02:30:29.982Z,19.70
2023-02-24T02:31:30.008Z,21.30
2023-02-24T02:32:30.126Z,18.90
2023-02-24T02:33:29.959Z,21.60
2023-02-24T02:34:29.945Z,17.70
2023-02-24T02:35:29.913Z,27.10
2023-02-24T02:36:29.923Z,19.20
2023-02-24T02:37:29.945Z,24.20
2023-02-24T02:38:29.872Z,21.00
2023-02-24T02:39:29.857Z,17.30
2023-02-24T02:40:29.854Z,19.10
2023-02-24T02:41:29.826Z,25.90
2023-02-24T02:42:29.812Z,20.10
2023-02-24T02:43:29.848Z,22.30
2023-02-24T02:44:29.804Z,19.10
2023-02-24T02:45:29.852Z,20.20
2023-02-24T02:46:29.751Z,19.40
2023-02-24T02:47:29.738Z,19.00
2023-02-24T02:48:29.748Z,19.70
2023-02-24T02:49:29.718Z,22.00
2023-02-24T02:50:29.736Z,14.60
2023-02-24T02:51:29.718Z,19.50
2023-02-24T02:52:29.738Z,21.40
2023-02-24T02:53:29.684Z,16.60
2023-02-24T02:54:29.665Z,19.50
2023-02-24T02:55:29.690Z,19.20
2023-02-24T02:56:29.626Z,18.10
2023-02-24T02:57:29.771Z,16.80
2023-02-24T02:58:29.606Z,20.30
2023-02-24T02:59:29.605Z,19.40
2023-02-24T03:00:29.572Z,20.40
2023-02-24T03:01:29.676Z,22.20
2023-02-24T03:02:29.586Z,18.50
2023-02-24T03:03:29.538Z,18.50
2023-02-24T03:04:29.534Z,21.90
2023-02-24T03:05:29.552Z,21.80
2023-02-24T03:06:29.518Z,20.70
2023-02-24T03:07:29.478Z,23.00
2023-02-24T03:08:29.475Z,22.10
2023-02-24T03:09:29.467Z,24.10
2023-02-24T03:10:29.484Z,22.80
2023-02-24T03:11:29.468Z,18.50
2023-02-24T03:12:29.427Z,23.50
2023-02-24T03:13:29.394Z,20.40
2023-02-24T03:14:29.386Z,17.50
2023-02-24T03:15:29.392Z,18.50
2023-02-24T03:16:29.387Z,16.80
2023-02-24T03:17:29.355Z,18.00
2023-02-24T03:18:29.381Z,16.70
2023-02-24T03:19:29.308Z,15.30
2023-02-24T03:20:29.343Z,15.70
2023-02-24T03:21:29.296Z,16.60
2023-02-24T03:22:29.285Z,21.40
2023-02-24T03:23:29.270Z,18.00
2023-02-24T03:24:29.237Z,17.90
2023-02-24T03:25:29.242Z,18.50
2023-02-24T03:26:29.230Z,17.80
2023-02-24T03:27:29.226Z,14.80
2023-02-24T03:28:29.192Z,17.80
2023-02-24T03:29:29.193Z,14.20
2023-02-24T03:30:30.584Z,16.30
2023-02-24T03:31:29.204Z,18.80
2023-02-24T03:32:30.772Z,19.80
2023-02-24T03:33:29.146Z,17.80
2023-02-24T03:34:29.141Z,16.40
2023-02-24T03:35:29.100Z,20.60
2023-02-24T03:36:29.086Z,16.20
2023-02-24T03:37:29.072Z,16.30
2023-02-24T03:38:29.053Z,15.70
2023-02-24T03:39:29.054Z,16.50
2023-02-24T03:40:29.064Z,16.00
2023-02-24T03:41:29.035Z,15.40
2023-02-24T03:42:28.998Z,17.50
2023-02-24T03:43:29.969Z,16.20
2023-02-24T03:44:28.996Z,19.40
2023-02-24T03:45:29.104Z,20.70
2023-02-24T03:46:29.014Z,21.70
2023-02-24T03:47:28.951Z,17.90
2023-02-24T03:48:28.931Z,18.40
2023-02-24T03:49:28.953Z,19.60
2023-02-24T03:50:28.924Z,18.20
2023-02-24T03:51:28.927Z,25.10
2023-02-24T03:52:28.901Z,19.10
2023-02-24T03:53:28.940Z,15.10
2023-02-24T03:54:28.876Z,17.90
2023-02-24T03:55:28.846Z,20.60
2023-02-24T03:56:28.839Z,17.00
2023-02-24T03:57:28.833Z,21.90
2023-02-24T03:58:28.833Z,18.20
2023-02-24T03:59:28.833Z,16.90
2023-02-24T04:00:28.761Z,19.70
2023-02-24T04:01:28.761Z,21.90
2023-02-24T04:02:28.784Z,20.30
2023-02-24T04:03:28.734Z,20.60
2023-02-24T04:04:28.723Z,22.20
2023-02-24T04:05:28.706Z,18.60
2023-02-24T04:06:28.688Z,22.40
2023-02-24T04:07:31.877Z,17.40
2023-02-24T04:08:28.707Z,18.40
2023-02-24T04:09:28.668Z,16.30
2023-02-24T04:10:28.635Z,19.20
2023-02-24T04:11:28.620Z,21.50
2023-02-24T04:12:28.694Z,18.40
2023-02-24T04:13:28.617Z,18.30
2023-02-24T04:14:28.573Z,20.40
2023-02-24T04:15:28.578Z,20.10
2023-02-24T04:16:28.553Z,21.40
2023-02-24T04:17:28.553Z,19.30
2023-02-24T04:18:28.549Z,21.90
2023-02-24T04:19:28.525Z,19.40
2023-02-24T04:20:28.514Z,23.50
2023-02-24T04:21:28.489Z,18.90
2023-02-24T04:22:28.471Z,19.80
2023-02-24T04:23:28.477Z,22.70
2023-02-24T04:24:28.544Z,20.20
2023-02-24T04:25:28.433Z,20.20
2023-02-24T04:26:28.428Z,25.00
2023-02-24T04:27:28.469Z,22.90
2023-02-24T04:28:28.399Z,21.30
2023-02-24T04:29:28.396Z,22.40
2023-02-24T04:30:28.380Z,23.80
2023-02-24T04:31:28.496Z,22.30
2023-02-24T04:32:28.425Z,18.50
2023-02-24T04:33:28.355Z,20.30
2023-02-24T04:34:28.307Z,23.30
2023-02-24T04:35:28.312Z,21.60
2023-02-24T04:36:28.338Z,25.60
2023-02-24T04:37:28.269Z,22.10
2023-02-24T04:38:28.358Z,23.00
2023-02-24T04:39:28.258Z,22.90
2023-02-24T04:40:28.257Z,17.10
2023-02-24T04:41:28.220Z,26.40
2023-02-24T04:42:28.245Z,22.80
2023-02-24T04:43:28.198Z,22.30
2023-02-24T04:44:28.237Z,20.20
2023-02-24T04:45:28.224Z,24.90
2023-02-24T04:46:28.228Z,21.90
2023-02-24T04:47:28.148Z,21.80
2023-02-24T04:48:28.143Z,22.20
2023-02-24T04:49:28.113Z,20.00
2023-02-24T04:50:28.330Z,17.80
2023-02-24T04:51:29.410Z,22.70
2023-02-24T04:52:28.110Z,21.20
2023-02-24T04:53:28.097Z,23.80
2023-02-24T04:54:28.059Z,23.10
2023-02-24T04:55:28.051Z,26.20
2023-02-24T04:56:28.043Z,21.60
2023-02-24T04:57:28.011Z,18.70
2023-02-24T04:58:28.077Z,20.70
2023-02-24T04:59:28.024Z,17.10
2023-02-24T05:00:28.002Z,18.30
2023-02-24T05:01:27.962Z,16.50
2023-02-24T05:02:27.978Z,20.80
2023-02-24T05:03:28.093Z,24.50
2023-02-24T05:04:27.970Z,21.90
2023-02-24T05:05:27.912Z,22.60
2023-02-24T05:06:27.907Z,19.10
2023-02-24T05:07:27.935Z,22.10
2023-02-24T05:08:27.864Z,21.30
2023-02-24T05:09:27.860Z,20.80
2023-02-24T05:10:27.954Z,20.10
2023-02-24T05:11:27.830Z,23.50
2023-02-24T05:12:27.838Z,23.50
2023-02-24T05:13:27.804Z,26.70
2023-02-24T05:14:27.783Z,20.40
2023-02-24T05:15:27.770Z,18.30
2023-02-24T05:16:28.515Z,25.80
2023-02-24T05:17:27.752Z,22.40
2023-02-24T05:18:36.546Z,21.40
2023-02-24T05:19:35.231Z,19.50
2023-02-24T05:20:36.404Z,18.90
2023-02-24T05:21:35.212Z,20.70
2023-02-24T05:22:35.174Z,23.90
2023-02-24T05:23:34.681Z,16.80
2023-02-24T05:24:35.522Z,17.40
2023-02-24T05:25:28.643Z,20.70
2023-02-24T05:26:27.639Z,17.80
2023-02-24T05:27:27.636Z,17.80
2023-02-24T05:28:27.609Z,18.50
2023-02-24T05:29:27.697Z,14.40
2023-02-24T05:30:27.703Z,21.10
2023-02-24T05:31:27.610Z,19.60
2023-02-24T05:32:27.827Z,16.10
2023-02-24T05:33:27.540Z,16.50
2023-02-24T05:34:27.525Z,16.70
2023-02-24T05:35:27.505Z,17.20
2023-02-24T05:36:27.513Z,14.40
2023-02-24T05:37:27.477Z,15.00
2023-02-24T05:38:27.520Z,14.30
2023-02-24T05:39:27.481Z,12.50
2023-02-24T05:40:27.452Z,13.10
2023-02-24T05:41:27.411Z,13.70
2023-02-24T05:42:27.405Z,13.90
2023-02-24T05:43:27.425Z,12.90
2023-02-24T05:44:27.401Z,15.60
2023-02-24T05:45:27.475Z,12.50
2023-02-24T05:46:27.543Z,12.70
2023-02-24T05:47:27.360Z,11.70
2023-02-24T05:48:27.332Z,13.90
2023-02-24T05:49:27.335Z,14.00
2023-02-24T05:50:27.302Z,16.50
2023-02-24T05:51:27.348Z,15.80
2023-02-24T05:52:27.266Z,16.70
2023-02-24T05:53:27.320Z,14.60
2023-02-24T05:54:27.239Z,11.10
2023-02-24T05:55:27.396Z,11.40
2023-02-24T05:56:27.218Z,13.40
2023-02-24T05:57:27.403Z,12.80
2023-02-24T05:58:27.271Z,13.00
2023-02-24T05:59:27.186Z,18.50
2023-02-24T06:00:27.178Z,14.00
2023-02-24T06:01:27.155Z,12.20
2023-02-24T06:02:28.017Z,14.00
2023-02-24T06:03:27.590Z,16.50
2023-02-24T06:04:27.482Z,13.90
2023-02-24T06:05:28.880Z,13.50
2023-02-24T06:06:27.169Z,13.20
2023-02-24T06:07:27.095Z,12.60
2023-02-24T06:08:27.104Z,13.50
2023-02-24T06:09:27.075Z,11.90
2023-02-24T06:10:27.067Z,10.10
2023-02-24T06:11:27.055Z,13.10
2023-02-24T06:12:27.049Z,11.80
2023-02-24T06:13:26.988Z,9.50
2023-02-24T06:14:27.022Z,11.00
2023-02-24T06:15:26.981Z,8.80
2023-02-24T06:16:27.025Z,12.30
2023-02-24T06:17:26.984Z,13.30
2023-02-24T06:18:26.921Z,12.20
2023-02-24T06:19:26.924Z,10.50
2023-02-24T06:20:26.915Z,11.20
2023-02-24T06:21:26.902Z,13.50
2023-02-24T06:22:26.869Z,11.60
2023-02-24T06:23:26.859Z,12.80
2023-02-24T06:24:26.855Z,12.40
2023-02-24T06:25:26.863Z,14.30
2023-02-24T06:26:26.829Z,13.70
2023-02-24T06:27:26.824Z,10.10
2023-02-24T06:28:26.829Z,12.30
2023-02-24T06:29:26.869Z,10.80
2023-02-24T06:30:26.896Z,11.30
2023-02-24T06:31:26.806Z,9.00
2023-02-24T06:32:26.910Z,12.70
2023-02-24T06:33:26.836Z,11.70
2023-02-24T06:34:26.718Z,11.20
2023-02-24T06:35:27.205Z,11.00
2023-02-24T06:36:26.681Z,10.30
2023-02-24T06:37:26.683Z,12.50
2023-02-24T06:38:26.678Z,14.50
2023-02-24T06:39:26.692Z,12.50
2023-02-24T06:40:26.662Z,12.40
2023-02-24T06:41:26.764Z,10.90
2023-02-24T06:42:26.625Z,11.00
2023-02-24T06:43:26.651Z,11.30
2023-02-24T06:44:26.628Z,12.00
2023-02-24T06:45:26.621Z,9.90
2023-02-24T06:46:26.624Z,7.90
2023-02-24T06:47:26.607Z,14.60
2023-02-24T06:48:26.553Z,12.70
2023-02-24T06:49:26.503Z,16.00
2023-02-24T06:50:26.522Z,15.40
2023-02-24T06:51:26.518Z,13.20
2023-02-24T06:52:26.509Z,15.10
2023-02-24T06:53:26.476Z,11.50
2023-02-24T06:54:26.483Z,15.80
2023-02-24T06:55:26.466Z,11.30
2023-02-24T06:56:26.426Z,14.20
2023-02-24T06:57:26.407Z,9.60
2023-02-24T06:58:26.472Z,10.50
2023-02-24T06:59:26.428Z,11.70
2023-02-24T07:00:26.361Z,11.90
2023-02-24T07:01:26.583Z,10.80
2023-02-24T07:02:26.333Z,9.20
2023-02-24T07:03:26.444Z,14.50
2023-02-24T07:04:28.421Z,13.10
2023-02-24T07:05:26.415Z,9.00
2023-02-24T07:06:35.117Z,10.40
2023-02-24T07:07:26.259Z,7.20
2023-02-24T07:08:26.264Z,8.50
2023-02-24T07:09:26.246Z,11.80
2023-02-24T07:10:26.280Z,16.50
2023-02-24T07:11:26.246Z,11.40
2023-02-24T07:12:26.202Z,12.00
2023-02-24T07:13:26.238Z,9.40
2023-02-24T07:14:26.167Z,13.30
2023-02-24T07:15:26.157Z,7.70
2023-02-24T07:16:26.228Z,8.50
2023-02-24T07:17:26.158Z,10.30
2023-02-24T07:18:26.147Z,10.80
2023-02-24T07:19:26.121Z,9.40
2023-02-24T07:20:26.127Z,9.40
2023-02-24T07:21:26.148Z,9.60
2023-02-24T07:22:26.080Z,11.00
2023-02-24T07:23:26.080Z,12.90
2023-02-24T07:24:26.115Z,12.00
2023-02-24T07:25:26.037Z,10.90
2023-02-24T07:26:26.032Z,12.30
2023-02-24T07:27:26.040Z,10.70
2023-02-24T07:28:26.012Z,8.60
2023-02-24T07:29:25.995Z,10.00
2023-02-24T07:30:26.057Z,7.90
2023-02-24T07:31:26.422Z,11.40
2023-02-24T07:32:26.017Z,13.20
2023-02-24T07:33:25.943Z,9.40
2023-02-24T07:34:25.953Z,8.30
2023-02-24T07:35:25.920Z,17.40
2023-02-24T07:36:25.877Z,12.90
2023-02-24T07:37:27.077Z,10.30
2023-02-24T07:38:28.233Z,10.50
2023-02-24T07:39:25.874Z,8.60
2023-02-24T07:40:25.994Z,10.20
2023-02-24T07:41:25.854Z,11.50
2023-02-24T07:42:25.808Z,11.50
2023-02-24T07:43:25.782Z,11.90
2023-02-24T07:44:25.824Z,13.00
2023-02-24T07:45:25.833Z,11.60
2023-02-24T07:46:25.834Z,10.80
2023-02-24T07:47:25.729Z,12.80
2023-02-24T07:48:25.789Z,15.50
2023-02-24T07:49:25.723Z,16.20
2023-02-24T07:50:25.691Z,12.40
2023-02-24T07:51:25.732Z,13.10
2023-02-24T07:52:25.678Z,14.40
2023-02-24T07:53:25.658Z,9.70
2023-02-24T07:54:25.652Z,15.10
2023-02-24T07:55:25.815Z,9.70
2023-02-24T07:56:25.613Z,11.60
2023-02-24T07:57:25.641Z,8.80
2023-02-24T07:58:25.644Z,12.40
2023-02-24T07:59:25.648Z,11.10
2023-02-24T08:00:25.589Z,11.90
2023-02-24T08:01:25.541Z,10.40
2023-02-24T08:02:25.567Z,10.70
2023-02-24T08:03:25.512Z,8.70
2023-02-24T08:04:25.501Z,12.00
2023-02-24T08:05:25.534Z,9.90
2023-02-24T08:06:25.482Z,9.30
2023-02-24T08:07:25.762Z,9.10
2023-02-24T08:08:25.462Z,10.80
2023-02-24T08:09:25.442Z,11.80
2023-02-24T08:10:25.529Z,13.40
2023-02-24T08:11:25.454Z,10.70
2023-02-24T08:12:25.401Z,11.80
2023-02-24T08:13:25.512Z,11.20
2023-02-24T08:14:25.370Z,12.60
2023-02-24T08:15:25.354Z,13.20
2023-02-24T08:16:25.353Z,13.10
2023-02-24T08:17:25.373Z,13.10
2023-02-24T08:18:25.313Z,14.30
2023-02-24T08:19:25.380Z,15.10
2023-02-24T08:20:25.306Z,13.40
2023-02-24T08:21:25.297Z,10.70
2023-02-24T08:22:25.279Z,18.00
2023-02-24T08:23:25.308Z,13.90
2023-02-24T08:24:25.531Z,14.70
2023-02-24T08:25:25.290Z,10.90
2023-02-24T08:26:34.489Z,11.40
2023-02-24T08:27:25.204Z,12.10
2023-02-24T08:28:25.193Z,11.70
2023-02-24T08:29:25.169Z,12.80
2023-02-24T08:30:25.221Z,9.90
2023-02-24T08:31:25.760Z,13.70
2023-02-24T08:32:25.253Z,14.30
2023-02-24T08:33:25.124Z,11.20
2023-02-24T08:34:25.117Z,13.20
2023-02-24T08:35:25.102Z,11.90
2023-02-24T08:36:25.109Z,9.10
2023-02-24T08:37:25.059Z,11.10
2023-02-24T08:38:26.552Z,10.50
2023-02-24T08:39:25.081Z,15.40
2023-02-24T08:40:25.106Z,9.00
2023-02-24T08:41:25.217Z,10.90
2023-02-24T08:42:25.009Z,13.40
2023-02-24T08:43:24.998Z,10.40
2023-02-24T08:44:25.035Z,9.20
2023-02-24T08:45:24.960Z,10.00
2023-02-24T08:46:24.994Z,14.30
2023-02-24T08:47:24.971Z,10.60
2023-02-24T08:48:24.946Z,10.00
2023-02-24T08:49:24.929Z,11.70
2023-02-24T08:50:24.925Z,10.10
2023-02-24T08:51:24.898Z,12.10
2023-02-24T08:52:24.895Z,10.00
2023-02-24T08:53:24.880Z,14.40
2023-02-24T08:54:24.862Z,10.50
2023-02-24T08:55:24.868Z,14.50
2023-02-24T08:56:24.851Z,11.00
2023-02-24T08:57:24.808Z,13.80
2023-02-24T08:58:24.807Z,15.10
2023-02-24T08:59:24.800Z,11.80
2023-02-24T09:00:24.772Z,8.80
2023-02-24T09:01:25.202Z,8.20
2023-02-24T09:02:24.756Z,8.90
2023-02-24T09:03:24.718Z,9.10
2023-02-24T09:04:24.800Z,11.40
2023-02-24T09:05:24.731Z,11.10
2023-02-24T09:06:24.705Z,8.50
2023-02-24T09:07:24.707Z,11.30
2023-02-24T09:08:24.690Z,10.10
2023-02-24T09:09:24.661Z,10.50
2023-02-24T09:10:24.632Z,15.90
2023-02-24T09:11:24.681Z,11.00
2023-02-24T09:12:24.775Z,8.20
2023-02-24T09:13:24.614Z,10.70
2023-02-24T09:14:27.723Z,9.10
2023-02-24T09:15:24.596Z,9.40
2023-02-24T09:16:24.707Z,9.00
2023-02-24T09:17:24.631Z,11.50
2023-02-24T09:18:24.565Z,12.70
2023-02-24T09:19:24.514Z,8.60
2023-02-24T09:20:24.526Z,10.30
2023-02-24T09:21:24.495Z,8.90
2023-02-24T09:22:24.497Z,7.50
2023-02-24T09:23:24.484Z,6.70
2023-02-24T09:24:24.474Z,10.40
2023-02-24T09:25:24.478Z,10.00
2023-02-24T09:26:24.452Z,11.50
2023-02-24T09:27:24.446Z,14.00
2023-02-24T09:28:24.496Z,9.00
2023-02-24T09:29:24.380Z,9.30
2023-02-24T09:30:24.385Z,11.00
2023-02-24T09:31:25.027Z,11.20
2023-02-24T09:32:24.513Z,9.10
2023-02-24T09:33:24.396Z,10.60
2023-02-24T09:34:24.356Z,9.60
2023-02-24T09:35:24.314Z,18.10
2023-02-24T09:36:24.334Z,12.80
2023-02-24T09:37:24.296Z,12.60
2023-02-24T09:38:24.303Z,12.20
2023-02-24T09:39:24.250Z,10.00
2023-02-24T09:40:24.284Z,12.20
2023-02-24T09:41:24.234Z,11.30
2023-02-24T09:42:24.215Z,7.40
2023-02-24T09:43:24.219Z,12.10
2023-02-24T09:44:24.190Z,12.40
2023-02-24T09:45:24.273Z,11.00
2023-02-24T09:46:24.314Z,11.60
2023-02-24T09:47:24.204Z,11.00
2023-02-24T09:48:24.149Z,12.60
2023-02-24T09:49:24.170Z,12.80
2023-02-24T09:50:51.609Z,10.70
2023-02-24T09:51:25.103Z,11.30
2023-02-24T09:52:24.084Z,15.50
2023-02-24T09:53:24.106Z,10.10
2023-02-24T09:54:24.060Z,10.90
2023-02-24T09:55:24.050Z,13.00
2023-02-24T09:56:24.049Z,10.40
2023-02-24T09:57:24.093Z,10.30
2023-02-24T09:58:29.342Z,11.50
2023-02-24T09:59:25.048Z,9.00
2023-02-24T10:00:24.000Z,12.20
2023-02-24T10:01:24.308Z,12.20
2023-02-24T10:02:24.003Z,9.00
2023-02-24T10:03:23.971Z,10.30
2023-02-24T10:04:23.960Z,10.20
2023-02-24T10:05:23.925Z,11.30
2023-02-24T10:06:23.924Z,13.70
2023-02-24T10:07:23.888Z,10.10
2023-02-24T10:08:23.876Z,9.60
2023-02-24T10:09:23.898Z,12.30
2023-02-24T10:10:23.874Z,10.50
2023-02-24T10:11:23.984Z,17.40
2023-02-24T10:12:23.840Z,10.30
2023-02-24T10:13:23.849Z,12.50
2023-02-24T10:14:25.586Z,11.10
2023-02-24T10:15:23.797Z,11.50
2023-02-24T10:16:23.897Z,10.50
2023-02-24T10:17:23.800Z,11.30
2023-02-24T10:18:23.760Z,7.80
2023-02-24T10:19:23.752Z,10.10
2023-02-24T10:20:23.723Z,10.90
2023-02-24T10:21:23.723Z,8.70
2023-02-24T10:22:23.708Z,9.00
2023-02-24T10:23:23.716Z,8.90
2023-02-24T10:24:23.681Z,8.90
2023-02-24T10:25:23.693Z,9.70
2023-02-24T10:26:23.668Z,13.40
2023-02-24T10:27:23.680Z,14.80
2023-02-24T10:28:23.772Z,10.40
2023-02-24T10:29:23.618Z,9.50
2023-02-24T10:30:23.609Z,10.60
2023-02-24T10:31:24.071Z,9.80
2023-02-24T10:32:24.194Z,11.10
2023-02-24T10:33:23.565Z,8.20
2023-02-24T10:34:24.146Z,11.40
2023-02-24T10:35:23.532Z,7.30
2023-02-24T10:36:23.582Z,12.00
2023-02-24T10:37:28.602Z,10.20
2023-02-24T10:38:24.518Z,12.20
2023-02-24T10:39:23.485Z,12.60
2023-02-24T10:40:23.462Z,9.70
2023-02-24T10:41:23.623Z,10.80
2023-02-24T10:42:23.440Z,11.70
2023-02-24T10:43:23.492Z,11.10
2023-02-24T10:44:23.416Z,13.10
2023-02-24T10:45:23.408Z,11.20
2023-02-24T10:46:34.993Z,11.60
2023-02-24T10:47:24.367Z,12.20
2023-02-24T10:48:32.315Z,14.00
2023-02-24T10:49:24.368Z,10.90
2023-02-24T10:50:23.343Z,12.40
2023-02-24T10:51:23.567Z,13.90
2023-02-24T10:52:23.301Z,15.90
2023-02-24T10:53:23.300Z,13.90
2023-02-24T10:54:23.280Z,12.70
2023-02-24T10:55:23.296Z,14.50
2023-02-24T10:56:23.554Z,13.70
2023-02-24T10:57:23.261Z,11.20
2023-02-24T10:58:23.228Z,15.30
2023-02-24T10:59:23.385Z,12.70
2023-02-24T11:00:23.204Z,10.20
2023-02-24T11:01:23.492Z,14.30
2023-02-24T11:02:23.223Z,14.10
2023-02-24T11:03:32.511Z,16.40
2023-02-24T11:04:24.137Z,11.50
2023-02-24T11:05:23.139Z,13.90
2023-02-24T11:06:23.140Z,13.00
2023-02-24T11:07:23.135Z,17.60
2023-02-24T11:08:23.090Z,11.00
2023-02-24T11:09:23.080Z,11.60
2023-02-24T11:10:23.065Z,11.00
2023-02-24T11:11:23.426Z,14.90
2023-02-24T11:12:23.025Z,17.30
2023-02-24T11:13:23.033Z,14.00
2023-02-24T11:14:23.000Z,18.70
2023-02-24T11:15:22.990Z,20.30
2023-02-24T11:16:23.124Z,19.70
2023-02-24T11:17:23.001Z,19.30
2023-02-24T11:18:22.972Z,23.40
2023-02-24T11:19:23.030Z,18.10
2023-02-24T11:20:22.945Z,18.50
2023-02-24T11:21:23.351Z,25.50
2023-02-24T11:22:22.899Z,20.90
2023-02-24T11:23:22.924Z,28.30
2023-02-24T11:24:22.898Z,27.90
2023-02-24T11:25:22.866Z,30.70
2023-02-24T11:26:22.839Z,21.40
2023-02-24T11:27:22.879Z,25.70
2023-02-24T11:28:22.818Z,24.30
2023-02-24T11:29:22.844Z,21.70
2023-02-24T11:30:22.872Z,23.80
2023-02-24T11:31:23.328Z,23.90
2023-02-24T11:32:23.179Z,18.70
2023-02-24T11:33:22.769Z,16.30
2023-02-24T11:34:22.738Z,14.80
2023-02-24T11:35:22.752Z,15.80
2023-02-24T11:36:22.788Z,11.00
2023-02-24T11:37:22.818Z,13.50
2023-02-24T11:38:22.755Z,17.90
2023-02-24T11:39:22.787Z,16.70
2023-02-24T11:40:23.686Z,13.70
2023-02-24T11:41:24.494Z,13.20
2023-02-24T11:42:22.621Z,12.60
2023-02-24T11:43:22.631Z,14.30
2023-02-24T11:44:22.647Z,12.30
2023-02-24T11:45:22.584Z,12.30
2023-02-24T11:46:22.615Z,15.00
2023-02-24T11:47:22.570Z,15.30
2023-02-24T11:48:22.577Z,15.20
2023-02-24T11:49:22.587Z,15.70
2023-02-24T11:50:23.046Z,13.80
2023-02-24T11:51:22.835Z,13.40
2023-02-24T11:52:22.656Z,14.70
2023-02-24T11:53:22.544Z,16.80
2023-02-24T11:54:22.483Z,14.70
2023-02-24T11:55:22.466Z,16.10
2023-02-24T11:56:22.466Z,15.70
2023-02-24T11:57:22.834Z,18.70
2023-02-24T11:58:22.426Z,18.60
2023-02-24T11:59:22.472Z,18.80
2023-02-24T12:00:22.396Z,15.10
2023-02-24T12:01:22.683Z,18.30
2023-02-24T12:02:22.481Z,16.00
2023-02-24T12:03:22.684Z,19.50
2023-02-24T12:04:22.337Z,17.10
2023-02-24T12:05:22.408Z,16.20
2023-02-24T12:06:22.321Z,15.60
2023-02-24T12:07:22.301Z,12.50
2023-02-24T12:08:22.289Z,20.40
2023-02-24T12:09:22.382Z,19.50
2023-02-24T12:10:22.336Z,17.90
2023-02-24T12:11:22.659Z,17.90
2023-02-24T12:12:22.368Z,19.60
2023-02-24T12:13:22.337Z,19.40
2023-02-24T12:14:22.209Z,23.30
2023-02-24T12:15:22.367Z,19.10
2023-02-24T12:16:22.212Z,14.20
2023-02-24T12:17:22.304Z,18.00
2023-02-24T12:18:22.178Z,17.20
2023-02-24T12:19:22.161Z,16.80
2023-02-24T12:20:22.134Z,19.70
2023-02-24T12:21:22.745Z,15.20
2023-02-24T12:22:22.963Z,20.20
2023-02-24T12:23:23.223Z,15.80
2023-02-24T12:24:23.028Z,15.70
2023-02-24T12:25:22.082Z,15.50
2023-02-24T12:26:22.081Z,19.40
2023-02-24T12:27:22.078Z,20.50
2023-02-24T12:28:22.014Z,18.20
2023-02-24T12:29:22.024Z,17.90
2023-02-24T12:30:22.042Z,17.10
2023-02-24T12:31:22.501Z,19.10
2023-02-24T12:32:22.065Z,13.90
2023-02-24T12:33:21.984Z,15.00
2023-02-24T12:34:21.933Z,21.60
2023-02-24T12:35:21.928Z,19.40
2023-02-24T12:36:21.912Z,17.60
2023-02-24T12:37:21.923Z,16.60
2023-02-24T12:38:21.899Z,19.00
2023-02-24T12:39:21.871Z,16.20
2023-02-24T12:40:21.875Z,15.70
2023-02-24T12:41:22.100Z,19.10
2023-02-24T12:42:21.825Z,16.90
2023-02-24T12:43:21.852Z,15.40
2023-02-24T12:44:21.823Z,17.40
2023-02-24T12:45:21.793Z,15.60
2023-02-24T12:46:21.848Z,18.30
2023-02-24T12:47:21.790Z,16.50
2023-02-24T12:48:21.748Z,17.00
2023-02-24T12:49:21.750Z,18.00
2023-02-24T12:50:22.699Z,13.80
2023-02-24T12:51:22.062Z,15.40
2023-02-24T12:52:21.690Z,18.00
2023-02-24T12:53:21.704Z,14.90
2023-02-24T12:54:21.694Z,17.70